createdAt,value
2022-09-23T00:20:46.661Z,100747.40
2022-09-23T05:00:19.499Z,100648.80
2022-09-23T05:04:04.220Z,100647.80
2022-09-23T05:06:37.139Z,100651.40
2022-09-23T05:09:09.376Z,100646.80
2022-09-23T05:11:38.030Z,100652.40
2022-09-23T05:14:06.620Z,100651.40
2022-09-23T05:16:36.282Z,100648.20
2022-09-23T05:19:05.111Z,100650.00
2022-09-23T05:21:34.031Z,100648.20
2022-09-23T05:24:03.150Z,100646.80
2022-09-23T05:26:33.440Z,100649.40
2022-09-23T05:29:02.070Z,100654.60
2022-09-23T05:31:31.952Z,100656.20
2022-09-23T05:34:05.051Z,100659.00
2022-09-23T05:36:38.633Z,100656.60
2022-09-23T05:39:08.827Z,100662.00
2022-09-23T05:41:37.610Z,100657.40
2022-09-23T05:44:06.370Z,100651.20
2022-09-23T05:46:35.529Z,100655.20
2022-09-23T05:49:08.817Z,100652.40
2022-09-23T05:51:38.981Z,100658.40
2022-09-23T05:54:08.770Z,100658.20
2022-09-23T05:56:37.670Z,100653.00
2022-09-23T05:59:07.444Z,100654.40
2022-09-23T06:01:38.600Z,100654.60
2022-09-23T06:04:08.667Z,100650.00
2022-09-23T06:06:41.656Z,100649.20
2022-09-23T06:09:14.990Z,100649.60
2022-09-23T06:11:43.849Z,100643.80
2022-09-23T06:14:15.147Z,100646.60
2022-09-23T06:16:43.852Z,100649.40
2022-09-23T06:19:12.554Z,100648.00
2022-09-23T06:21:42.089Z,100650.40
2022-09-23T06:24:16.382Z,100647.80
2022-09-23T06:26:48.551Z,100647.20
2022-09-23T06:29:18.531Z,100647.20
2022-09-23T06:31:50.729Z,100649.40
2022-09-23T06:34:20.117Z,100652.40
2022-09-23T06:36:49.067Z,100646.60
2022-09-23T06:39:17.670Z,100647.80
2022-09-23T06:41:46.865Z,100648.40
2022-09-23T06:44:16.267Z,100651.00
2022-09-23T06:46:44.975Z,100648.00
2022-09-23T06:49:13.714Z,100651.40
2022-09-23T06:51:42.711Z,100648.20
2022-09-23T06:54:11.652Z,100650.40
2022-09-23T06:56:44.970Z,100641.00
2022-09-23T06:59:17.390Z,100641.00
2022-09-23T07:01:48.582Z,100642.80
2022-09-23T07:04:18.316Z,100650.40
2022-09-23T07:06:47.350Z,100653.60
2022-09-23T07:09:16.091Z,100654.40
2022-09-23T07:11:44.771Z,100653.60
2022-09-23T07:14:14.475Z,100650.80
2022-09-23T07:16:43.111Z,100648.60
2022-09-23T07:19:12.790Z,100647.60
2022-09-23T07:21:41.650Z,100647.80
2022-09-23T07:24:10.249Z,100650.20
2022-09-23T07:26:43.504Z,100647.80
2022-09-23T07:29:15.391Z,100649.60
2022-09-23T07:31:44.064Z,100646.00
2022-09-23T07:34:12.955Z,100644.60
2022-09-23T07:36:41.839Z,100640.40
2022-09-23T07:39:13.866Z,100636.20
2022-09-23T07:41:44.896Z,100637.40
2022-09-23T07:44:13.633Z,100634.40
2022-09-23T07:46:42.555Z,100636.20
2022-09-23T07:49:11.501Z,100638.80
2022-09-23T07:51:46.333Z,100634.20
2022-09-23T07:54:17.809Z,100632.80
2022-09-23T07:56:47.331Z,100632.40
2022-09-23T07:59:18.989Z,100631.00
2022-09-23T08:01:52.980Z,100627.40
2022-09-23T08:04:30.033Z,100627.20
2022-09-23T08:07:02.772Z,100624.60
2022-09-23T08:09:35.790Z,100620.40
2022-09-23T08:12:05.330Z,100616.40
2022-09-23T08:14:33.968Z,100610.20
2022-09-23T08:17:02.771Z,100603.00
2022-09-23T08:19:31.363Z,100602.20
2022-09-23T08:22:00.669Z,100597.60
2022-09-23T08:24:32.710Z,100606.20
2022-09-23T08:27:01.456Z,100608.20
2022-09-23T08:29:29.931Z,100603.20
2022-09-23T08:31:58.508Z,100609.00
2022-09-23T08:34:29.192Z,100608.00
2022-09-23T08:36:57.949Z,100599.60
2022-09-23T08:39:27.441Z,100605.80
2022-09-23T08:42:30.530Z,100603.20
2022-09-23T08:45:07.390Z,100605.00
2022-09-23T08:47:53.496Z,100600.40
2022-09-23T08:50:26.961Z,100592.40
2022-09-23T08:53:06.010Z,100595.60
2022-09-23T08:55:51.229Z,100591.00
2022-09-23T08:58:38.212Z,100595.40
2022-09-23T09:01:25.505Z,100595.20
2022-09-23T09:04:01.450Z,100593.20
2022-09-23T09:07:07.550Z,100587.60
2022-09-23T09:09:52.510Z,100589.20
2022-09-23T09:12:48.031Z,100589.40
2022-09-23T09:15:29.440Z,100583.80
2022-09-23T09:18:11.689Z,100586.80
2022-09-23T09:20:57.352Z,100588.80
2022-09-23T09:23:55.550Z,100584.60
2022-09-23T09:26:34.550Z,100580.60
2022-09-23T09:29:36.162Z,100586.40
2022-09-23T09:33:02.350Z,100591.00
2022-09-23T09:36:09.329Z,100594.20
2022-09-23T09:38:38.350Z,100594.00
2022-09-23T09:41:31.613Z,100590.00
2022-09-23T09:44:03.969Z,100584.40
2022-09-23T09:47:28.741Z,100586.40
2022-09-23T09:50:21.998Z,100583.00
2022-09-23T09:52:56.468Z,100578.00
2022-09-23T09:55:29.415Z,100579.40
2022-09-23T09:58:06.174Z,100577.00
2022-09-23T10:00:43.634Z,100570.40
2022-09-23T10:03:15.251Z,100564.20
2022-09-23T10:05:46.621Z,100562.40
2022-09-23T10:08:37.411Z,100563.40
2022-09-23T10:11:18.202Z,100560.60
2022-09-23T10:14:19.334Z,100559.20
2022-09-23T10:17:05.702Z,100557.80
2022-09-23T10:19:38.689Z,100553.20
2022-09-23T10:22:30.250Z,100552.80
2022-09-23T10:25:07.833Z,100539.20
2022-09-23T10:27:39.130Z,100541.00
2022-09-23T10:30:25.169Z,100540.60
2022-09-23T10:32:57.846Z,100536.20
2022-09-23T10:35:28.593Z,100530.20
2022-09-23T10:38:00.753Z,100526.60
2022-09-23T10:40:58.943Z,100522.20
2022-09-23T10:44:15.379Z,100518.00
2022-09-23T10:47:36.616Z,100515.80
2022-09-23T10:50:38.758Z,100510.20
2022-09-23T10:53:39.490Z,100503.20
2022-09-23T10:56:46.462Z,100503.80
2022-09-23T10:59:45.192Z,100497.80
2022-09-23T11:02:32.083Z,100495.40
2022-09-23T11:05:33.966Z,100496.40
2022-09-23T11:08:32.668Z,100497.80
2022-09-23T11:11:23.788Z,100495.00
2022-09-23T11:14:42.918Z,100487.20
2022-09-23T11:17:33.431Z,100482.40
2022-09-23T11:20:34.976Z,100478.20
2022-09-23T11:23:46.680Z,100473.00
2022-09-23T11:26:53.393Z,100471.20
2022-09-23T11:30:03.138Z,100468.80
2022-09-23T11:36:02.428Z,100465.40
2022-09-23T11:38:48.677Z,100460.00
2022-09-23T11:41:39.416Z,100459.60
2022-09-23T11:44:45.040Z,100455.80
2022-09-23T11:47:35.245Z,100450.40
2022-09-23T11:50:23.517Z,100447.20
2022-09-23T11:53:28.001Z,100445.60
2022-09-23T11:56:49.211Z,100441.40
2022-09-23T11:59:40.947Z,100442.00
2022-09-23T12:02:46.589Z,100438.20
2022-09-23T12:05:24.229Z,100438.60
2022-09-23T12:08:28.929Z,100435.00
2022-09-23T12:11:43.864Z,100428.80
2022-09-23T12:14:30.121Z,100435.60
2022-09-23T12:17:39.873Z,100432.20
2022-09-23T12:20:23.883Z,100427.00
2022-09-23T12:23:23.145Z,100419.40
2022-09-23T12:26:08.625Z,100418.60
2022-09-23T12:28:43.765Z,100423.20
2022-09-23T12:31:30.868Z,100425.20
2022-09-23T12:34:03.695Z,100418.40
2022-09-23T12:36:39.505Z,100416.20
2022-09-23T12:39:30.366Z,100412.40
2022-09-23T12:42:21.447Z,100413.00
2022-09-23T12:44:50.976Z,100407.60
2022-09-23T12:47:25.636Z,100404.20
2022-09-23T12:49:58.593Z,100399.80
2022-09-23T12:52:33.826Z,100397.00
2022-09-23T12:55:34.889Z,100397.60
2022-09-23T12:58:39.787Z,100391.00
2022-09-23T13:01:27.508Z,100395.80
2022-09-23T13:04:17.422Z,100390.00
2022-09-23T13:07:08.332Z,100391.40
2022-09-23T13:09:43.968Z,100386.00
2022-09-23T13:12:32.978Z,100381.60
2022-09-23T13:15:07.010Z,100370.40
2022-09-23T13:17:41.149Z,100366.60
2022-09-23T13:20:22.350Z,100365.20
2022-09-23T13:22:53.805Z,100361.60
2022-09-23T13:25:34.051Z,100356.00
2022-09-23T13:28:04.431Z,100353.20
2022-09-23T13:30:34.096Z,100348.20
2022-09-23T13:33:12.282Z,100351.20
2022-09-23T13:39:23.181Z,100342.40
2022-09-23T13:42:01.855Z,100338.80
2022-09-23T13:44:31.050Z,100333.40
2022-09-23T13:47:03.650Z,100331.60
2022-09-23T13:49:37.533Z,100322.40
2022-09-23T13:52:07.178Z,100318.40
2022-09-23T13:54:51.086Z,100324.60
2022-09-23T13:57:26.951Z,100318.40
2022-09-23T14:00:21.794Z,100316.00
2022-09-23T14:02:50.534Z,100314.20
2022-09-23T14:05:30.566Z,100314.80
2022-09-23T14:08:01.357Z,100312.40
2022-09-23T14:10:31.625Z,100312.00
2022-09-23T14:13:00.565Z,100308.20
2022-09-23T14:15:31.095Z,100310.60
2022-09-23T14:18:07.017Z,100308.40
2022-09-23T14:20:50.796Z,100304.00
2022-09-23T14:23:19.718Z,100305.60
2022-09-23T14:25:49.776Z,100306.40
2022-09-23T14:28:23.156Z,100303.60
2022-09-23T14:30:58.112Z,100305.00
2022-09-23T14:33:32.821Z,100299.40
2022-09-23T14:36:31.639Z,100291.00
2022-09-23T14:39:10.542Z,100289.00
2022-09-23T14:41:44.181Z,100284.00
2022-09-23T14:44:24.920Z,100278.40
2022-09-23T14:46:58.962Z,100274.60
2022-09-23T14:49:28.641Z,100270.20
2022-09-23T14:52:01.722Z,100273.80
2022-09-23T14:54:35.541Z,100268.20
2022-09-23T14:57:23.191Z,100268.60
2022-09-23T15:00:03.240Z,100269.80
2022-09-23T15:02:43.762Z,100265.60
2022-09-23T15:06:33.742Z,100264.40
2022-09-23T15:10:30.223Z,100260.80
2022-09-23T15:14:37.824Z,100259.40
2022-09-23T15:18:31.291Z,100259.80
2022-09-23T15:22:38.587Z,100260.20
2022-09-23T15:26:42.290Z,100260.80
2022-09-23T15:30:30.564Z,100263.40
2022-09-23T15:34:18.905Z,100258.60
2022-09-23T15:37:18.149Z,100263.00
2022-09-23T15:39:47.326Z,100258.20
2022-09-23T15:42:17.006Z,100254.60
2022-09-23T15:44:46.047Z,100253.00
2022-09-23T15:47:22.968Z,100256.80
2022-09-23T15:49:51.985Z,100255.80
2022-09-23T15:52:23.266Z,100259.60
2022-09-23T15:54:52.587Z,100258.40
2022-09-23T15:57:22.043Z,100266.40
2022-09-23T15:59:51.009Z,100261.20
2022-09-23T16:02:24.778Z,100265.00
2022-09-23T16:04:54.167Z,100266.00
2022-09-23T16:07:25.479Z,100264.00
2022-09-23T16:09:55.288Z,100262.20
2022-09-23T16:12:24.488Z,100264.40
2022-09-23T16:14:54.108Z,100261.80
2022-09-23T16:17:23.608Z,100261.00
2022-09-23T16:19:52.829Z,100261.20
2022-09-23T16:22:22.548Z,100260.20
2022-09-23T16:24:51.674Z,100264.20
2022-09-23T16:27:20.930Z,100265.20
2022-09-23T16:29:50.208Z,100259.40
2022-09-23T16:32:22.255Z,100259.20
2022-09-23T16:34:51.649Z,100260.20
2022-09-23T16:37:32.451Z,100263.20
2022-09-23T16:40:02.522Z,100258.20
2022-09-23T16:42:32.404Z,100258.80
2022-09-23T16:45:01.808Z,100260.80
2022-09-23T16:47:31.819Z,100255.20
2022-09-23T16:50:00.813Z,100264.40
2022-09-23T16:52:31.449Z,100258.60
2022-09-23T16:55:00.429Z,100250.00
2022-09-23T16:57:30.310Z,100251.00
2022-09-23T17:00:18.042Z,100248.00
2022-09-23T17:03:05.450Z,100249.40
2022-09-23T17:05:34.351Z,100253.40
2022-09-23T17:08:04.410Z,100253.60
2022-09-23T17:10:33.652Z,100250.20
2022-09-23T17:13:02.450Z,100252.00
2022-09-23T17:15:31.432Z,100251.00
2022-09-23T17:18:00.231Z,100252.80
2022-09-23T17:20:29.111Z,100255.60
2022-09-23T17:22:58.079Z,100253.40
2022-09-23T17:25:27.112Z,100256.20
2022-09-23T17:27:56.311Z,100249.60
2022-09-23T17:30:26.206Z,100250.80
2022-09-23T17:32:55.229Z,100247.80
2022-09-23T17:35:24.532Z,100247.00
2022-09-23T17:37:54.653Z,100244.60
2022-09-23T17:40:26.603Z,100244.80
2022-09-23T17:42:55.791Z,100240.20
2022-09-23T17:45:24.818Z,100245.00
2022-09-23T17:47:55.371Z,100246.20
2022-09-23T17:50:24.201Z,100243.80
2022-09-23T17:52:53.293Z,100241.20
2022-09-23T17:55:21.971Z,100243.20
2022-09-23T17:57:54.122Z,100242.00
2022-09-23T18:00:23.453Z,100246.80
2022-09-23T18:02:52.755Z,100246.60
2022-09-23T18:05:23.029Z,100240.80
2022-09-23T18:07:51.971Z,100237.40
2022-09-23T18:10:20.676Z,100244.00
2022-09-23T18:12:49.556Z,100244.20
2022-09-23T18:15:20.197Z,100248.80
2022-09-23T18:17:49.251Z,100254.40
2022-09-23T18:20:18.091Z,100253.60
2022-09-23T18:22:46.974Z,100253.40
2022-09-23T18:25:37.558Z,100257.40
2022-09-23T18:28:04.811Z,100255.60
2022-09-23T18:30:33.925Z,100250.80
2022-09-23T18:33:03.811Z,100251.60
2022-09-23T18:35:33.415Z,100250.00
2022-09-23T18:38:02.354Z,100247.80
2022-09-23T18:40:31.368Z,100247.20
2022-09-23T18:43:00.932Z,100251.80
2022-09-23T18:45:30.394Z,100246.60
2022-09-23T18:48:18.575Z,100251.60
2022-09-23T18:50:49.274Z,100247.20
2022-09-23T18:53:18.231Z,100246.00
2022-09-23T18:55:47.471Z,100243.20
2022-09-23T18:58:17.332Z,100238.80
2022-09-23T19:00:46.491Z,100238.60
2022-09-23T19:03:17.735Z,100237.00
2022-09-23T19:05:46.752Z,100238.20
2022-09-23T19:08:15.852Z,100237.00
2022-09-23T19:10:44.635Z,100235.00
2022-09-23T19:13:14.874Z,100235.20
2022-09-23T19:15:43.761Z,100232.60
2022-09-23T19:18:13.569Z,100232.60
2022-09-23T19:20:54.082Z,100234.40
2022-09-23T19:23:23.332Z,100234.80
2022-09-23T19:25:52.314Z,100235.80
2022-09-23T19:28:23.076Z,100229.40
2022-09-23T19:30:51.952Z,100232.00
2022-09-23T19:33:21.611Z,100229.40
2022-09-23T19:35:53.832Z,100232.00
2022-09-23T19:38:22.932Z,100235.80
2022-09-23T19:40:52.495Z,100231.20
2022-09-23T19:43:22.002Z,100228.40
2022-09-23T19:45:57.082Z,100227.00
2022-09-23T19:48:26.389Z,100230.80
2022-09-23T19:50:55.591Z,100230.60
2022-09-23T19:53:28.158Z,100228.60
2022-09-23T19:55:57.841Z,100228.40
2022-09-23T19:58:27.040Z,100227.80
2022-09-23T20:00:56.084Z,100229.80
2022-09-23T20:03:26.295Z,100231.00
2022-09-23T20:05:59.960Z,100232.00
2022-09-23T20:08:28.812Z,100236.60
2022-09-23T20:10:57.751Z,100238.20
2022-09-23T20:13:26.914Z,100236.40
2022-09-23T20:15:55.857Z,100233.00
2022-09-23T20:18:24.851Z,100232.80
2022-09-23T20:20:56.711Z,100231.00
2022-09-23T20:23:25.591Z,100229.40
2022-09-23T20:26:20.822Z,100219.80
2022-09-23T20:28:49.693Z,100221.80
2022-09-23T20:31:21.267Z,100225.00
2022-09-23T20:34:05.921Z,100219.00
2022-09-23T20:46:03.216Z,100214.20
2022-09-23T20:48:32.632Z,100217.40
2022-09-23T20:51:06.513Z,100206.20
2022-09-23T20:53:35.622Z,100204.80
2022-09-23T20:56:06.348Z,100207.20
2022-09-23T20:58:37.036Z,100210.80
2022-09-23T21:01:12.683Z,100212.80
2022-09-23T21:03:45.198Z,100212.20
2022-09-23T21:06:17.094Z,100210.20
2022-09-23T21:08:47.213Z,100212.20
2022-09-23T21:11:18.353Z,100208.00
2022-09-23T21:13:49.637Z,100206.60
2022-09-23T21:16:22.900Z,100209.80
2022-09-23T21:18:53.094Z,100213.00
2022-09-23T21:21:22.693Z,100212.80
2022-09-23T21:23:52.472Z,100216.40
2022-09-23T21:26:25.232Z,100214.60
2022-09-23T21:29:01.132Z,100214.80
2022-09-23T21:31:39.131Z,100215.80
2022-09-23T21:34:11.601Z,100210.00
2022-09-23T21:36:43.752Z,100212.60
2022-09-23T21:39:13.333Z,100210.40
2022-09-23T21:41:42.853Z,100208.20
2022-09-23T21:44:12.548Z,100202.40
2022-09-23T21:46:41.446Z,100203.80
2022-09-23T21:49:10.320Z,100202.00
2022-09-23T21:51:41.594Z,100200.80
2022-09-23T21:54:17.315Z,100199.00
2022-09-23T21:56:46.693Z,100199.80
2022-09-23T21:59:48.956Z,100194.40
2022-09-23T22:02:50.874Z,100189.60
2022-09-23T22:05:57.834Z,100192.80
2022-09-23T22:08:59.450Z,100199.00
2022-09-23T22:12:01.719Z,100196.40
2022-09-23T22:15:21.501Z,100192.60
2022-09-23T22:18:23.333Z,100192.20
2022-09-23T22:21:25.994Z,100187.40
2022-09-23T22:24:25.434Z,100190.80
2022-09-23T22:27:29.601Z,100191.00
2022-09-23T22:30:31.734Z,100181.00
2022-09-23T22:33:33.931Z,100177.00
2022-09-23T22:36:40.432Z,100184.80
2022-09-23T22:39:42.611Z,100186.20
2022-09-23T22:42:43.842Z,100187.60
2022-09-23T22:45:50.512Z,100185.20
2022-09-23T22:48:53.754Z,100181.80
2022-09-23T22:51:54.332Z,100176.80
2022-09-23T22:54:56.812Z,100178.60
2022-09-23T22:58:32.606Z,100174.40
2022-09-23T23:01:36.680Z,100175.80
2022-09-23T23:04:37.612Z,100174.80
2022-09-23T23:07:38.376Z,100172.60
2022-09-23T23:10:42.392Z,100174.20
2022-09-23T23:13:44.714Z,100173.20
2022-09-23T23:17:34.300Z,100170.60
2022-09-23T23:21:23.821Z,100171.00
2022-09-23T23:25:19.042Z,100172.40
2022-09-23T23:28:20.376Z,100172.00
2022-09-23T23:31:22.730Z,100174.00
2022-09-23T23:34:21.331Z,100167.60
2022-09-23T23:37:21.210Z,100166.80
2022-09-23T23:40:22.751Z,100163.80
2022-09-23T23:43:23.592Z,100159.40
2022-09-23T23:46:27.636Z,100158.80
2022-09-23T23:49:27.493Z,100151.60
2022-09-23T23:52:31.352Z,100147.80
2022-09-23T23:56:17.472Z,100146.20
2022-09-23T23:59:18.773Z,100141.60
